createdAt,value
2023-02-23T05:40:58.257Z,77.58
2023-02-23T05:43:35.837Z,77.78
2023-02-23T05:46:18.242Z,77.69
2023-02-23T05:48:53.742Z,77.64
2023-02-23T05:51:34.858Z,77.50
2023-02-23T05:54:09.961Z,77.07
2023-02-23T05:56:47.953Z,76.97
2023-02-23T05:59:25.815Z,76.91
2023-02-23T06:02:04.088Z,76.74
2023-02-23T06:04:39.008Z,76.49
2023-02-23T06:07:15.153Z,76.33
2023-02-23T06:09:52.061Z,76.19
2023-02-23T06:12:27.406Z,76.23
2023-02-23T06:15:14.893Z,75.92
2023-02-23T06:17:49.737Z,75.71
2023-02-23T06:20:51.759Z,75.78
2023-02-23T06:23:31.600Z,75.69
2023-02-23T06:26:09.684Z,75.69
2023-02-23T06:28:45.751Z,75.48
2023-02-23T06:31:31.874Z,75.53
2023-02-23T06:34:08.511Z,75.50
2023-02-23T06:36:55.483Z,75.50
2023-02-23T06:39:32.454Z,75.57
2023-02-23T06:42:10.372Z,75.53
2023-02-23T06:45:03.115Z,75.22
2023-02-23T06:47:40.884Z,75.37
2023-02-23T06:50:17.781Z,75.08
2023-02-23T06:53:15.501Z,75.02
2023-02-23T06:55:53.665Z,74.99
2023-02-23T06:58:30.447Z,75.06
2023-02-23T07:01:12.034Z,75.06
2023-02-23T07:03:47.061Z,75.09
2023-02-23T07:06:24.900Z,75.22
2023-02-23T07:09:03.773Z,74.82
2023-02-23T07:11:41.747Z,74.83
2023-02-23T07:14:26.032Z,74.78
2023-02-23T07:17:04.673Z,74.80
2023-02-23T07:19:57.711Z,74.90
2023-02-23T07:22:34.573Z,74.63
2023-02-23T07:25:13.231Z,74.69
2023-02-23T07:27:49.907Z,74.72
2023-02-23T07:30:26.824Z,74.57
2023-02-23T07:33:00.406Z,74.65
2023-02-23T07:35:37.376Z,74.43
2023-02-23T07:38:13.013Z,74.64
2023-02-23T07:40:52.546Z,74.59
2023-02-23T07:43:28.185Z,74.65
2023-02-23T07:46:06.940Z,74.41
2023-02-23T07:48:45.539Z,74.45
2023-02-23T07:51:21.994Z,74.34
2023-02-23T07:54:00.164Z,74.47
2023-02-23T07:56:38.827Z,73.92
2023-02-23T07:59:14.970Z,73.85
2023-02-23T08:01:51.203Z,73.70
2023-02-23T08:04:29.252Z,73.57
2023-02-23T08:07:05.744Z,73.78
2023-02-23T08:09:42.387Z,73.63
2023-02-23T08:12:19.526Z,73.71
2023-02-23T08:14:55.129Z,73.63
2023-02-23T08:17:30.448Z,73.40
2023-02-23T08:20:05.038Z,73.11
2023-02-23T08:22:49.302Z,72.95
2023-02-23T08:25:26.132Z,73.52
2023-02-23T08:28:04.845Z,73.16
2023-02-23T08:30:42.322Z,72.95
2023-02-23T08:33:17.913Z,73.11
2023-02-23T08:35:55.242Z,72.94
2023-02-23T08:38:32.548Z,72.88
2023-02-23T08:41:08.395Z,72.84
2023-02-23T08:43:44.157Z,72.48
2023-02-23T08:46:21.183Z,73.03
2023-02-23T08:48:58.589Z,72.70
2023-02-23T08:51:35.344Z,72.96
2023-02-23T08:54:15.011Z,72.41
2023-02-23T08:56:58.329Z,72.53
2023-02-23T08:59:41.934Z,73.08
2023-02-23T09:02:18.007Z,72.69
2023-02-23T09:04:56.875Z,72.26
2023-02-23T09:07:32.392Z,72.45
2023-02-23T09:10:09.011Z,72.15
2023-02-23T09:12:45.165Z,72.13
2023-02-23T09:15:20.954Z,72.03
2023-02-23T09:17:57.933Z,72.29
2023-02-23T09:20:33.056Z,72.26
2023-02-23T09:23:24.147Z,72.20
2023-02-23T09:25:59.272Z,72.04
2023-02-23T09:28:36.133Z,71.95
2023-02-23T09:31:14.104Z,72.10
2023-02-23T09:33:51.810Z,71.94
2023-02-23T09:36:32.059Z,72.01
2023-02-23T09:39:07.559Z,72.15
2023-02-23T09:42:13.235Z,72.23
2023-02-23T09:47:59.888Z,72.03
2023-02-23T09:50:38.182Z,72.38
2023-02-23T09:53:34.310Z,72.67
2023-02-23T09:56:14.884Z,72.69
2023-02-23T09:58:52.046Z,71.99
2023-02-23T10:01:56.768Z,71.86
2023-02-23T10:04:41.840Z,71.58
2023-02-23T10:07:22.595Z,71.70
2023-02-23T10:10:12.808Z,71.77
2023-02-23T10:12:57.130Z,71.70
2023-02-23T10:15:41.143Z,71.74
2023-02-23T10:18:40.613Z,71.41
2023-02-23T10:21:30.353Z,71.27
2023-02-23T10:24:08.115Z,71.12
2023-02-23T10:26:50.672Z,71.13
2023-02-23T10:29:30.585Z,71.21
2023-02-23T10:32:10.679Z,71.32
2023-02-23T10:34:49.860Z,70.87
2023-02-23T10:37:27.792Z,70.83
2023-02-23T10:40:05.581Z,70.74
2023-02-23T10:42:41.964Z,70.92
2023-02-23T10:45:25.709Z,70.66
2023-02-23T10:48:09.173Z,70.65
2023-02-23T10:50:50.307Z,70.45
2023-02-23T10:53:30.493Z,70.30
2023-02-23T10:56:11.262Z,70.12
2023-02-23T10:58:50.377Z,69.97
2023-02-23T11:02:00.922Z,70.16
2023-02-23T11:04:38.203Z,69.80
2023-02-23T11:07:18.178Z,70.17
2023-02-23T11:09:54.042Z,69.67
2023-02-23T11:12:41.548Z,69.77
2023-02-23T11:15:49.123Z,69.34
2023-02-23T11:18:29.678Z,69.81
2023-02-23T11:21:11.425Z,70.19
2023-02-23T11:23:52.145Z,70.02
2023-02-23T11:26:39.873Z,69.84
2023-02-23T11:29:25.561Z,69.87
2023-02-23T11:32:11.321Z,69.81
2023-02-23T11:34:51.001Z,69.75
2023-02-23T11:37:33.982Z,69.75
2023-02-23T11:40:25.945Z,69.83
2023-02-23T11:43:10.125Z,69.89
2023-02-23T11:45:52.727Z,69.47
2023-02-23T11:48:34.678Z,69.64
2023-02-23T11:51:10.455Z,69.56
2023-02-23T11:53:50.385Z,69.47
2023-02-23T11:56:30.090Z,69.49
2023-02-23T11:59:10.129Z,69.70
2023-02-23T12:01:49.436Z,69.62
2023-02-23T12:04:38.708Z,69.35
2023-02-23T12:07:39.907Z,69.44
2023-02-23T12:10:25.525Z,69.29
2023-02-23T12:13:08.076Z,69.28
2023-02-23T12:15:51.885Z,69.36
2023-02-23T12:18:49.685Z,69.41
2023-02-23T12:21:36.052Z,69.52
2023-02-23T12:24:22.337Z,69.17
2023-02-23T12:27:01.967Z,69.25
2023-02-23T12:29:43.984Z,69.21
2023-02-23T12:32:26.818Z,69.24
2023-02-23T12:35:04.641Z,69.31
2023-02-23T12:37:45.786Z,69.16
2023-02-23T12:40:24.824Z,69.21
2023-02-23T12:43:09.469Z,69.17
2023-02-23T12:45:50.971Z,69.06
2023-02-23T12:48:37.918Z,68.99
2023-02-23T12:51:20.837Z,68.75
2023-02-23T12:53:56.911Z,68.79
2023-02-23T12:56:54.825Z,68.66
2023-02-23T13:00:21.226Z,68.53
2023-02-23T13:03:17.546Z,68.93
2023-02-23T13:06:02.000Z,69.00
2023-02-23T13:08:52.616Z,69.03
2023-02-23T13:11:41.771Z,69.11
2023-02-23T13:14:25.167Z,68.88
2023-02-23T13:17:08.239Z,68.81
2023-02-23T13:19:50.170Z,68.81
2023-02-23T13:22:42.724Z,68.67
2023-02-23T13:25:30.200Z,68.77
2023-02-23T13:28:10.432Z,68.70
2023-02-23T13:30:47.744Z,68.58
2023-02-23T13:33:43.746Z,68.73
2023-02-23T13:36:22.286Z,68.89
2023-02-23T13:39:24.029Z,68.88
2023-02-23T13:42:14.347Z,68.89
2023-02-23T13:44:55.506Z,68.79
2023-02-23T13:47:43.282Z,68.69
2023-02-23T13:50:25.457Z,68.64
2023-02-23T13:53:07.874Z,68.68
2023-02-23T13:55:52.400Z,69.05
2023-02-23T13:58:33.588Z,68.93
2023-02-23T14:01:18.665Z,69.01
2023-02-23T14:04:00.745Z,68.95
2023-02-23T14:06:37.310Z,69.11
2023-02-23T14:09:22.469Z,69.17
2023-02-23T14:12:04.572Z,69.09
2023-02-23T14:15:22.577Z,68.91
2023-02-23T14:18:04.178Z,68.98
2023-02-23T14:20:56.986Z,69.03
2023-02-23T14:23:38.176Z,69.02
2023-02-23T14:26:43.616Z,69.06
2023-02-23T14:29:34.492Z,69.01
2023-02-23T14:32:32.940Z,69.11
2023-02-23T14:35:30.189Z,69.45
2023-02-23T14:38:09.344Z,69.48
2023-02-23T14:40:49.492Z,69.56
2023-02-23T14:43:47.266Z,69.46
2023-02-23T14:46:28.958Z,69.67
2023-02-23T14:49:10.881Z,69.77
2023-02-23T14:51:49.774Z,69.97
2023-02-23T14:54:33.824Z,70.04
2023-02-23T14:57:23.591Z,70.18
2023-02-23T15:00:08.127Z,70.40
2023-02-23T15:02:58.010Z,70.24
2023-02-23T15:05:44.197Z,70.41
2023-02-23T15:08:28.404Z,70.53
2023-02-23T15:11:12.416Z,70.52
2023-02-23T15:13:55.434Z,70.51
2023-02-23T15:16:37.619Z,70.77
2023-02-23T15:19:23.263Z,70.87
2023-02-23T15:22:03.034Z,70.89
2023-02-23T15:24:46.444Z,70.88
2023-02-23T15:27:27.743Z,71.11
2023-02-23T15:33:30.954Z,71.25
2023-02-23T15:36:08.651Z,71.55
2023-02-23T15:38:54.630Z,71.59
2023-02-23T15:41:32.723Z,71.66
2023-02-23T15:44:16.339Z,71.63
2023-02-23T15:47:04.840Z,71.68
2023-02-23T15:49:42.367Z,71.77
2023-02-23T15:52:20.436Z,71.90
2023-02-23T15:55:00.816Z,71.91
2023-02-23T15:57:44.009Z,72.01
2023-02-23T16:00:35.866Z,72.04
2023-02-23T16:03:22.659Z,71.96
2023-02-23T16:06:03.519Z,71.91
2023-02-23T16:08:37.351Z,71.92
2023-02-23T16:11:22.782Z,72.04
2023-02-23T16:14:05.519Z,71.98
2023-02-23T16:16:48.656Z,72.10
2023-02-23T16:19:31.611Z,72.10
2023-02-23T16:22:03.821Z,72.10
2023-02-23T16:24:46.654Z,72.25
2023-02-23T16:27:21.934Z,72.23
2023-02-23T16:30:10.144Z,72.38
2023-02-23T16:32:45.698Z,72.38
2023-02-23T16:35:24.894Z,72.48
2023-02-23T16:38:13.595Z,72.62
2023-02-23T16:40:51.346Z,72.69
2023-02-23T16:43:26.885Z,72.67
2023-02-23T16:46:03.294Z,72.71
2023-02-23T16:48:36.374Z,72.84
2023-02-23T16:51:18.064Z,72.91
2023-02-23T16:54:07.963Z,73.10
2023-02-23T16:56:54.576Z,73.21
2023-02-23T16:59:41.434Z,73.35
2023-02-23T17:02:19.502Z,73.48
2023-02-23T17:04:59.586Z,73.51
2023-02-23T17:08:02.459Z,73.44
2023-02-23T17:10:43.862Z,73.46
2023-02-23T17:13:38.312Z,73.73
2023-02-23T17:16:24.596Z,73.84
2023-02-23T17:19:02.579Z,73.68
2023-02-23T17:21:40.863Z,73.94
2023-02-23T17:24:25.949Z,73.75
2023-02-23T17:27:13.669Z,74.03
2023-02-23T17:30:05.289Z,74.05
2023-02-23T17:32:43.140Z,74.13
2023-02-23T17:35:23.449Z,74.33
2023-02-23T17:37:56.373Z,74.51
2023-02-23T17:40:36.553Z,74.49
2023-02-23T17:43:28.122Z,74.70
2023-02-23T17:46:21.129Z,74.82
2023-02-23T17:49:07.038Z,75.04
2023-02-23T17:52:03.031Z,75.12
2023-02-23T17:54:39.205Z,75.31
2023-02-23T17:57:23.555Z,75.46
2023-02-23T18:00:04.844Z,75.57
2023-02-23T18:02:52.222Z,75.73
2023-02-23T18:05:41.076Z,75.94
2023-02-23T18:08:24.665Z,75.94
2023-02-23T18:11:05.464Z,76.22
2023-02-23T18:13:45.172Z,76.47
2023-02-23T18:16:25.031Z,76.50
2023-02-23T18:19:09.873Z,76.73
2023-02-23T18:21:58.611Z,77.03
2023-02-23T18:24:36.161Z,77.30
2023-02-23T18:27:21.793Z,77.60
2023-02-23T18:30:01.145Z,77.71
2023-02-23T18:32:44.545Z,77.96
2023-02-23T18:35:19.428Z,77.94
2023-02-23T18:38:00.854Z,77.99
2023-02-23T18:40:36.516Z,78.21
2023-02-23T18:43:39.359Z,78.38
2023-02-23T18:46:17.699Z,78.71
2023-02-23T18:49:01.054Z,78.89
2023-02-23T18:51:39.556Z,78.92
2023-02-23T18:54:20.243Z,79.08
2023-02-23T18:56:59.171Z,79.24
2023-02-23T18:59:46.149Z,79.35
2023-02-23T19:02:45.536Z,79.76
2023-02-23T19:05:45.371Z,79.80
2023-02-23T19:08:29.578Z,80.03
2023-02-23T19:14:47.990Z,80.36
2023-02-23T19:17:29.948Z,80.43
2023-02-23T19:20:24.234Z,80.47
2023-02-23T19:23:14.415Z,80.56
2023-02-23T19:26:04.245Z,80.82
2023-02-23T19:28:57.731Z,80.88
2023-02-23T19:31:40.941Z,81.05
2023-02-23T19:34:41.259Z,81.08
2023-02-23T19:37:24.611Z,81.20
2023-02-23T19:40:19.991Z,81.08
2023-02-23T19:43:30.914Z,81.02
2023-02-23T19:46:16.645Z,81.29
2023-02-23T19:49:11.899Z,81.19
2023-02-23T19:51:58.428Z,81.39
2023-02-23T19:55:13.245Z,81.48
2023-02-23T19:58:01.016Z,81.64
2023-02-23T20:00:40.943Z,81.70
2023-02-23T20:03:31.522Z,81.63
2023-02-23T20:06:23.620Z,81.80
2023-02-23T20:09:09.191Z,81.72
2023-02-23T20:12:00.206Z,81.76
2023-02-23T20:14:46.224Z,81.95
2023-02-23T20:17:28.429Z,81.88
2023-02-23T20:20:07.226Z,81.81
2023-02-23T20:22:55.644Z,82.02
2023-02-23T20:25:48.012Z,82.11
2023-02-23T20:28:28.557Z,82.11
2023-02-23T20:31:25.956Z,82.24
2023-02-23T20:34:11.440Z,82.23
2023-02-23T20:37:15.942Z,82.22
2023-02-23T20:40:16.908Z,82.34
2023-02-23T20:42:56.200Z,82.42
2023-02-23T20:46:03.174Z,82.67
2023-02-23T20:48:50.598Z,82.84
2023-02-23T20:51:41.861Z,82.77
2023-02-23T20:54:24.364Z,82.91
2023-02-23T20:57:11.701Z,83.18
2023-02-23T20:59:55.298Z,83.37
2023-02-23T21:02:51.951Z,83.39
2023-02-23T21:05:38.144Z,83.28
2023-02-23T21:08:18.004Z,83.27
2023-02-23T21:11:13.900Z,83.56
2023-02-23T21:13:55.475Z,83.66
2023-02-23T21:16:34.681Z,83.78
2023-02-23T21:19:21.770Z,83.83
2023-02-23T21:22:08.935Z,84.06
2023-02-23T21:24:46.642Z,84.12
2023-02-23T21:27:30.171Z,84.25
2023-02-23T21:30:09.714Z,84.30
2023-02-23T21:32:56.130Z,84.61
2023-02-23T21:35:54.514Z,84.66
2023-02-23T21:38:32.950Z,84.83
2023-02-23T21:41:28.174Z,84.85
2023-02-23T21:44:18.119Z,84.97
2023-02-23T21:46:59.046Z,84.96
2023-02-23T21:49:38.997Z,85.16
2023-02-23T21:52:15.117Z,85.40
2023-02-23T21:54:53.339Z,85.47
2023-02-23T21:57:33.597Z,85.64
2023-02-23T22:00:18.821Z,85.66
2023-02-23T22:02:54.924Z,86.07
2023-02-23T22:05:51.158Z,86.09
2023-02-23T22:08:30.470Z,86.19
2023-02-23T22:11:39.403Z,86.26
2023-02-23T22:14:16.543Z,86.74
2023-02-23T22:17:06.055Z,86.81
2023-02-23T22:19:55.807Z,87.06
2023-02-23T22:22:35.685Z,87.05
2023-02-23T22:25:13.138Z,87.41
2023-02-23T22:27:47.893Z,87.32
2023-02-23T22:30:23.669Z,87.27
2023-02-23T22:32:59.350Z,87.50
2023-02-23T22:35:34.199Z,87.64
2023-02-23T22:38:08.156Z,87.55
2023-02-23T22:40:43.606Z,87.64
2023-02-23T22:43:21.500Z,87.79
2023-02-23T22:45:59.825Z,87.94
2023-02-23T22:48:34.813Z,88.08
2023-02-23T22:51:13.003Z,88.19
2023-02-23T22:53:45.376Z,88.20
2023-02-23T22:56:19.692Z,88.28
2023-02-23T22:59:06.350Z,88.28
2023-02-23T23:01:44.669Z,88.21
2023-02-23T23:04:21.672Z,88.20
2023-02-23T23:07:12.385Z,88.19
2023-02-23T23:09:47.839Z,88.30
2023-02-23T23:12:22.903Z,88.33
2023-02-23T23:15:14.962Z,88.32
2023-02-23T23:17:48.737Z,88.47
2023-02-23T23:20:25.158Z,88.48
2023-02-23T23:23:07.680Z,88.69
2023-02-23T23:25:41.953Z,88.63
2023-02-23T23:28:25.477Z,88.53
2023-02-23T23:30:58.918Z,88.88
2023-02-23T23:33:32.641Z,88.77
2023-02-23T23:36:06.868Z,88.74
2023-02-23T23:38:38.701Z,88.76
2023-02-23T23:41:13.838Z,88.81
2023-02-23T23:43:46.824Z,89.03
2023-02-23T23:46:24.014Z,88.75
2023-02-23T23:48:57.538Z,89.00
2023-02-23T23:51:32.604Z,89.19
2023-02-23T23:54:06.069Z,89.26
2023-02-23T23:56:38.398Z,89.26
2023-02-23T23:59:20.590Z,89.51
